Texhoma, OK (73949)

1:11 PM CST on February 09, 2016 (GMT -0600)
Grass Land | | Change Station
CLOSE
Current Station
Personal Weather Station
Location: Goodwell, OK
Elevation: 3323 ft
Nearby Weather Stations

Elev 3323 ft 36.55 °N, 101.66 °W | Updated 11 minutes ago

Clear
Clear
62.2 °F
Feels Like 62.2 °F
N
20.2
Wind Variable Wind from NW

Today
High -- | Low -- °F
--% Chance of Precip.
Yesterday
High -- | Low -- °F
Precip. -- in
Pressure 30.23 in
Visibility 10.0 miles
Clouds Clear
Dew Point 28 °F
Humidity 27%
Rainfall 0.00 in
Snow Depth Not available.
7:41 AM 6:21 PM
New Moon, 2% visible
METAR KGUY 091853Z AUTO 36019G28KT 10SM CLR 17/M04 A3026 RMK AO2 PK WND 36029/1841 SLP237 T01721044
Pressure 30.23 in
Visibility 10.0 miles
Clouds Clear
Dew Point 28 °F
Humidity 27%
Rainfall 0.00 in
Snow Depth Not available.
7:41 AM 6:21 PM
New Moon, 2% visible
METAR KGUY 091853Z AUTO 36019G28KT 10SM CLR 17/M04 A3026 RMK AO2 PK WND 36029/1841 SLP237 T01721044

10-Day Weather Forecast

Almanac

Astronomy

Feb. 09, 2016 Rise Set
Actual Time
Civil Twilight
Nautical Twilight
Astronomical Twilight
Moon
Length of Visible Light
Length of Day
Tomorrow will be .
, % of the Moon is Illuminated

Today's Extremes

State Highs State Lows

Community

WunderPhotos

Upload Photos

1,891,666 photos uploaded!

WunderBlog® & News

Nearby

Air Quality

  Air Quality AQ Index Pollutant
Not available.

Snow Depth

Station Depth Elevation

Earthquake Activity

City Distance Mag. Time & Date
Minimum magnitude displayed is 2.5.

Coastal Water Temperatures

Place Temperature

Stations

Nearby Weather Stations

Station Location Temp. Windchill Dew Point Humidity Wind Precip. Elev Updated Type
                   

Watches & Warnings

There are currently no watches in effect.